METAR / TAF

ENOV 152020Z 02003KT 340V070 CAVOK 18/15 Q1006 RMK WIND RWY24 VRB02KT WIND 2090FT 13009KT


ENSD 152020Z 05003KT 010V090 CAVOK 18/15 Q1006 RMK WIND RWY26 00000KT WIND 1140FT 05005KT


ENAL 152050Z 11003KT 070V200 CAVOK 17/15 Q1006


ENML 152020Z AUTO 25004KT 170V300 9999NDV -SHRA FEW001/// SCT086/// 18/16 Q1006